Time;durP1;ratioP1;P1;durP2;ratioP2;P2;SDS_P1;SDS_P2;PMS_P1;PMS_P2;Temp;Humidity;BMP_temperature;BMP_pressure;BME280_temperature;BME280_humidity;BME280_pressure;Samples;Min_cycle;Max_cycle;Signal;HPM_P1;HPM_P2
2021/08/31 00:02:50;;;;;;;5.78;3.55;;;;;;;15.57;100.00;101881.53;6201876;28;20053;-81
2021/08/31 00:05:52;;;;;;;6.10;3.70;;;;;;;15.55;100.00;101894.03;6201949;28;20509;-80
2021/08/31 00:08:54;;;;;;;4.97;3.47;;;;;;;15.57;100.00;101895.63;6202149;28;20050;-81
2021/08/31 00:11:56;;;;;;;5.05;3.10;;;;;;;15.52;100.00;101888.88;6201702;28;20063;-81
2021/08/31 00:14:57;;;;;;;8.00;3.00;;;;;;;15.56;100.00;101891.28;6201448;28;20057;-81
2021/08/31 00:18:00;;;;;;;5.80;3.20;;;;;;;15.55;100.00;101888.72;6201592;28;20050;-81
2021/08/31 00:21:01;;;;;;;4.35;2.95;;;;;;;15.51;100.00;101882.75;6201624;28;20056;-81
2021/08/31 00:24:05;;;;;;;5.68;3.03;;;;;;;15.46;100.00;101890.94;6201333;28;20053;-80
2021/08/31 00:27:06;;;;;;;6.05;3.30;;;;;;;15.39;100.00;101892.22;6201722;28;20050;-81
2021/08/31 00:30:09;;;;;;;5.97;3.20;;;;;;;15.43;100.00;101893.75;6201780;28;20046;-80
2021/08/31 00:33:10;;;;;;;6.05;3.70;;;;;;;15.36;100.00;101891.53;6201658;28;20050;-81
2021/08/31 00:36:11;;;;;;;4.78;2.83;;;;;;;15.35;100.00;101895.09;6201119;28;20391;-81
2021/08/31 00:39:14;;;;;;;5.40;3.35;;;;;;;15.33;100.00;101897.84;6201469;28;20050;-80
2021/08/31 00:42:16;;;;;;;4.35;3.40;;;;;;;15.33;100.00;101897.00;6201590;28;20058;-81
2021/08/31 00:45:17;;;;;;;4.30;3.03;;;;;;;15.35;100.00;101900.41;6200981;28;20140;-81
2021/08/31 00:48:19;;;;;;;4.00;2.58;;;;;;;15.31;100.00;101889.16;6200794;28;20061;-81
2021/08/31 00:51:23;;;;;;;5.32;3.20;;;;;;;15.26;100.00;101890.31;6200348;28;20061;-81
2021/08/31 00:54:27;;;;;;;5.90;3.60;;;;;;;15.28;100.00;101889.31;6200499;28;20053;-80
2021/08/31 00:57:29;;;;;;;7.40;3.85;;;;;;;15.30;100.00;101887.41;6200594;28;20050;-80
2021/08/31 01:00:31;;;;;;;4.45;3.15;;;;;;;15.23;100.00;101886.91;6201308;28;20409;-80
2021/08/31 01:03:32;;;;;;;6.57;3.58;;;;;;;15.20;100.00;101883.56;6200315;28;20050;-81
2021/08/31 01:06:34;;;;;;;5.82;3.28;;;;;;;15.19;100.00;101882.72;6200770;28;20053;-80
2021/08/31 01:09:38;;;;;;;5.93;2.80;;;;;;;15.15;100.00;101880.31;6200666;28;20052;-80
2021/08/31 01:12:39;;;;;;;3.95;2.55;;;;;;;15.07;100.00;101882.53;6200205;28;20050;-80
2021/08/31 01:15:43;;;;;;;10.00;3.10;;;;;;;15.00;100.00;101874.06;6199966;28;20490;-81
2021/08/31 01:18:44;;;;;;;4.93;3.17;;;;;;;14.97;100.00;101874.22;6200129;28;20458;-81
2021/08/31 01:21:45;;;;;;;5.20;3.05;;;;;;;14.92;100.00;101873.63;6200506;28;20054;-80
2021/08/31 01:24:49;;;;;;;5.45;3.13;;;;;;;14.94;100.00;101877.03;6199523;28;20061;-81
2021/08/31 01:27:51;;;;;;;5.35;3.58;;;;;;;14.88;100.00;101880.88;6200166;28;20490;-81
2021/08/31 01:30:54;;;;;;;7.03;3.35;;;;;;;14.81;100.00;101881.28;6199889;28;20054;-80
2021/08/31 01:33:55;;;;;;;4.60;3.17;;;;;;;14.77;100.00;101880.59;6199486;28;20054;-80
2021/08/31 01:36:57;;;;;;;5.80;3.22;;;;;;;14.78;100.00;101879.66;6199639;28;20126;-81
2021/08/31 01:39:59;;;;;;;6.38;3.33;;;;;;;14.68;100.00;101891.66;6199926;28;20132;-81
2021/08/31 01:43:01;;;;;;;6.78;3.40;;;;;;;14.67;100.00;101887.28;6200162;28;20417;-80
2021/08/31 01:46:03;;;;;;;6.85;4.13;;;;;;;14.63;100.00;101891.91;6200031;28;20414;-81
2021/08/31 01:49:04;;;;;;;7.05;3.90;;;;;;;14.59;100.00;101900.94;6200416;28;20057;-80
2021/08/31 01:52:06;;;;;;;6.75;3.50;;;;;;;14.56;100.00;101903.72;6199643;28;20047;-81
2021/08/31 01:55:09;;;;;;;6.57;3.75;;;;;;;14.56;100.00;101911.66;6199853;28;20077;-81
2021/08/31 01:58:12;;;;;;;5.82;3.30;;;;;;;14.56;100.00;101911.66;6199515;28;20050;-80
2021/08/31 02:01:14;;;;;;;7.78;3.55;;;;;;;14.54;100.00;101907.41;6199650;28;20411;-80
2021/08/31 02:04:15;;;;;;;6.25;3.22;;;;;;;14.50;100.00;101919.91;6199449;28;20058;-80
2021/08/31 02:07:16;;;;;;;7.75;4.00;;;;;;;14.48;100.00;101903.25;6200198;28;20046;-80
2021/08/31 02:10:18;;;;;;;6.47;3.65;;;;;;;14.45;100.00;101912.19;6199633;28;20054;-80
2021/08/31 02:13:21;;;;;;;5.82;3.50;;;;;;;14.45;100.00;101906.03;6199720;28;20046;-80
2021/08/31 02:16:22;;;;;;;8.38;3.80;;;;;;;14.39;100.00;101906.34;6199054;28;20062;-81
2021/08/31 02:19:23;;;;;;;9.98;4.68;;;;;;;14.38;100.00;101908.13;6199217;28;20509;-80
2021/08/31 02:22:25;;;;;;;7.10;3.90;;;;;;;14.39;100.00;101907.19;6199180;28;20053;-81
2021/08/31 02:25:26;;;;;;;6.32;3.35;;;;;;;14.37;100.00;101909.06;6199085;28;20081;-80
2021/08/31 02:28:29;;;;;;;8.20;4.13;;;;;;;14.33;100.00;101904.88;6199776;28;20054;-80
2021/08/31 02:31:30;;;;;;;8.00;3.97;;;;;;;14.31;100.00;101906.75;6199676;28;20050;-81
2021/08/31 02:34:32;;;;;;;7.13;3.83;;;;;;;14.29;100.00;101907.72;6199002;28;20053;-81
2021/08/31 02:37:34;;;;;;;11.10;4.93;;;;;;;14.24;100.00;101907.97;6199113;28;20053;-81
2021/08/31 02:40:35;;;;;;;10.32;4.55;;;;;;;14.24;100.00;101912.41;6199572;28;20061;-80
2021/08/31 02:43:38;;;;;;;7.93;4.47;;;;;;;14.21;100.00;101916.03;6198780;28;20046;-80
2021/08/31 02:46:39;;;;;;;6.53;4.18;;;;;;;14.16;100.00;101915.41;6199365;28;20509;-81
2021/08/31 02:49:40;;;;;;;9.00;4.57;;;;;;;14.12;100.00;101920.00;6199354;28;20053;-81
2021/08/31 02:52:44;;;;;;;6.25;3.90;;;;;;;14.12;100.00;101908.56;6201126;28;20054;-81
2021/08/31 02:55:45;;;;;;;9.38;4.38;;;;;;;14.05;100.00;101920.41;6203811;28;20209;-80
2021/08/31 02:58:48;;;;;;;7.82;4.40;;;;;;;14.01;100.00;101921.47;6204184;28;20050;-80
2021/08/31 03:02:07;;;;;;;7.75;3.80;;;;;;;13.99;100.00;101910.97;6204087;28;20046;-80
2021/08/31 03:05:09;;;;;;;8.02;4.40;;;;;;;13.94;100.00;101915.63;6203209;28;20082;-79
2021/08/31 03:08:10;;;;;;;8.13;3.90;;;;;;;13.89;100.00;101921.13;6204041;28;20672;-81
2021/08/31 03:11:11;;;;;;;8.82;4.93;;;;;;;13.86;100.00;101917.78;6204168;28;20057;-80
2021/08/31 03:14:19;;;;;;;8.38;4.43;;;;;;;13.79;100.00;101911.94;6203637;28;20047;-80
2021/08/31 03:17:20;;;;;;;7.30;4.28;;;;;;;13.76;100.00;101906.78;6203462;28;20406;-81
2021/08/31 03:20:21;;;;;;;8.43;4.38;;;;;;;13.74;100.00;101918.38;6203805;28;20054;-80
2021/08/31 03:23:23;;;;;;;8.27;4.78;;;;;;;13.72;100.00;101915.81;6203556;28;20057;-80
2021/08/31 03:26:24;;;;;;;9.35;4.93;;;;;;;13.70;100.00;101921.16;6203269;28;20053;-81
2021/08/31 03:29:27;;;;;;;9.30;4.95;;;;;;;13.65;100.00;101917.88;6203524;28;20050;-80
2021/08/31 03:32:28;;;;;;;7.82;4.40;;;;;;;13.63;100.00;101914.47;6203354;28;20050;-81
2021/08/31 03:35:29;;;;;;;9.30;5.32;;;;;;;13.60;100.00;101911.97;6202673;28;20521;-80
2021/08/31 03:38:31;;;;;;;7.57;4.28;;;;;;;13.56;100.00;101913.03;6203410;28;20054;-80
2021/08/31 03:41:32;;;;;;;8.82;4.60;;;;;;;13.59;100.00;101917.31;6203060;28;20050;-80
2021/08/31 03:44:35;;;;;;;9.27;4.53;;;;;;;13.63;100.00;101910.97;6202239;28;20053;-80
2021/08/31 03:47:36;;;;;;;11.50;5.00;;;;;;;13.59;100.00;101914.69;6203012;28;20046;-81
2021/08/31 03:50:38;;;;;;;12.27;5.50;;;;;;;13.58;100.00;101910.31;6203000;28;20077;-80
2021/08/31 03:53:39;;;;;;;12.82;5.88;;;;;;;13.56;100.00;101917.47;6202937;28;20050;-81
2021/08/31 03:56:41;;;;;;;12.10;5.20;;;;;;;13.49;100.00;101923.94;6202554;28;20151;-80
2021/08/31 03:59:43;;;;;;;15.20;5.50;;;;;;;13.47;100.00;101923.16;6203024;28;20613;-79
2021/08/31 04:02:45;;;;;;;8.30;5.00;;;;;;;13.56;100.00;101918.31;6201949;28;20079;-80
2021/08/31 04:05:46;;;;;;;10.75;5.80;;;;;;;13.43;100.00;101923.31;6202671;28;20061;-81
2021/08/31 04:08:47;;;;;;;14.05;5.93;;;;;;;13.45;100.00;101915.34;6201036;28;20054;-81
2021/08/31 04:11:49;;;;;;;9.98;5.90;;;;;;;13.31;100.00;101915.13;6198889;28;20137;-80
2021/08/31 04:14:51;;;;;;;16.30;6.80;;;;;;;13.30;100.00;101923.94;6197719;28;20221;-80
2021/08/31 04:17:53;;;;;;;14.27;6.07;;;;;;;13.30;100.00;101924.78;6202440;28;20058;-80
2021/08/31 04:20:54;;;;;;;13.50;5.88;;;;;;;13.26;100.00;101930.28;6202362;28;20508;-80
2021/08/31 04:23:55;;;;;;;13.85;6.47;;;;;;;13.28;100.00;101939.88;6201508;28;20047;-81
2021/08/31 04:26:57;;;;;;;15.77;6.15;;;;;;;13.26;100.00;101940.84;6202281;28;20050;-80
2021/08/31 04:29:59;;;;;;;10.30;5.47;;;;;;;13.30;100.00;101940.63;6201995;28;20062;-81
2021/08/31 04:33:01;;;;;;;11.88;6.13;;;;;;;13.27;100.00;101940.78;6202062;28;20050;-81
2021/08/31 04:36:02;;;;;;;12.55;6.22;;;;;;;13.30;100.00;101943.28;6193728;28;20050;-81
2021/08/31 04:39:04;;;;;;;14.00;6.38;;;;;;;13.28;100.00;101941.66;6201276;28;20042;-81
2021/08/31 04:42:06;;;;;;;12.57;6.93;;;;;;;13.21;100.00;101952.44;6201344;28;20046;-80
2021/08/31 04:45:10;;;;;;;10.13;5.05;;;;;;;13.23;100.00;101944.50;6201223;28;20506;-80
2021/08/31 04:48:11;;;;;;;13.80;6.65;;;;;;;13.15;100.00;101951.88;6197627;28;20042;-79
2021/08/31 04:51:13;;;;;;;15.68;6.88;;;;;;;13.17;100.00;101955.28;6200730;28;20076;-81
2021/08/31 04:54:14;;;;;;;14.25;6.28;;;;;;;13.15;100.00;101955.34;6200549;28;20528;-81
2021/08/31 04:57:15;;;;;;;14.18;6.50;;;;;;;13.15;100.00;101959.78;6200512;28;20050;-80
2021/08/31 05:00:18;;;;;;;12.93;6.80;;;;;;;13.15;100.00;101962.41;6193458;28;20054;-80
2021/08/31 05:03:20;;;;;;;12.25;6.60;;;;;;;13.18;100.00;101957.00;6162427;28;20459;-80
2021/08/31 05:06:21;;;;;;;13.73;7.28;;;;;;;13.08;100.00;101960.97;6187452;23;20054;-77
2021/08/31 05:09:23;;;;;;;13.30;5.93;;;;;;;12.98;100.00;101963.16;6198513;28;20387;-77
2021/08/31 05:12:24;;;;;;;13.35;6.47;;;;;;;12.96;100.00;101970.31;6200224;28;20054;-77
2021/08/31 05:15:27;;;;;;;11.77;5.53;;;;;;;12.87;100.00;101963.63;6194397;28;20047;-77
2021/08/31 05:18:31;;;;;;;11.25;5.70;;;;;;;12.86;100.00;101971.63;6175424;28;20133;-77
2021/08/31 05:21:33;;;;;;;12.40;6.25;;;;;;;12.77;100.00;101970.25;6175072;28;20606;-77
2021/08/31 05:24:35;;;;;;;12.05;5.53;;;;;;;12.79;100.00;101981.56;6175061;28;20058;-77
2021/08/31 05:27:36;;;;;;;14.05;6.43;;;;;;;12.82;100.00;101968.25;6175172;28;20051;-77
2021/08/31 05:30:39;;;;;;;11.27;5.95;;;;;;;12.95;100.00;101972.09;6175147;28;20502;-77
2021/08/31 05:33:40;;;;;;;12.35;6.25;;;;;;;12.77;100.00;101972.03;6175128;28;20058;-77
2021/08/31 05:36:42;;;;;;;13.48;6.18;;;;;;;12.75;100.00;101984.41;6174724;28;20051;-77
2021/08/31 05:39:43;;;;;;;10.48;5.45;;;;;;;12.88;100.00;101978.53;6174896;28;20058;-77
2021/08/31 05:42:46;;;;;;;13.07;6.03;;;;;;;12.90;100.00;101989.03;6175260;28;20050;-77
2021/08/31 05:45:48;;;;;;;10.63;5.63;;;;;;;12.81;100.00;101984.13;6175162;28;20149;-77
2021/08/31 05:48:50;;;;;;;12.80;6.18;;;;;;;12.87;100.00;101994.44;6174956;28;20063;-77
2021/08/31 05:51:51;;;;;;;10.75;5.28;;;;;;;12.77;100.00;101998.41;6174721;28;20046;-77
2021/08/31 05:54:53;;;;;;;11.00;5.63;;;;;;;12.76;100.00;102000.16;6174672;28;20050;-77
2021/08/31 05:57:54;;;;;;;14.45;7.10;;;;;;;12.81;100.00;101994.69;6174833;28;20042;-77
2021/08/31 06:00:57;;;;;;;10.10;5.55;;;;;;;12.87;100.00;102005.84;6175020;28;20047;-77
2021/08/31 06:03:58;;;;;;;9.93;5.57;;;;;;;12.88;100.00;101999.66;6175014;28;20057;-77
2021/08/31 06:07:01;;;;;;;9.20;5.38;;;;;;;12.88;100.00;101999.66;6174418;28;20529;-78
2021/08/31 06:10:03;;;;;;;9.43;5.95;;;;;;;12.99;100.00;102007.13;6174774;28;20088;-78
2021/08/31 06:13:05;;;;;;;9.98;5.50;;;;;;;12.98;100.00;102013.28;6174373;28;20097;-77
2021/08/31 06:16:07;;;;;;;11.60;4.95;;;;;;;12.94;100.00;102011.72;6174457;28;20415;-77
2021/08/31 06:19:09;;;;;;;11.82;5.60;;;;;;;13.13;100.00;102011.78;6174126;28;20062;-77
2021/08/31 06:22:10;;;;;;;12.20;6.05;;;;;;;13.13;100.00;102010.00;6174021;28;20050;-77
2021/08/31 06:25:12;;;;;;;14.75;5.13;;;;;;;13.14;100.00;102017.00;6174372;28;20054;-77
2021/08/31 06:28:13;;;;;;;9.77;5.40;;;;;;;13.11;100.00;102032.97;6173789;28;20135;-77
2021/08/31 06:31:16;;;;;;;10.40;4.85;;;;;;;13.10;100.00;102022.47;6174442;28;20050;-77
2021/08/31 06:34:17;;;;;;;10.15;5.07;;;;;;;13.20;100.00;102022.00;6174115;28;20509;-77
2021/08/31 06:37:18;;;;;;;9.50;4.78;;;;;;;13.09;100.00;102032.19;6174203;28;20058;-77
2021/08/31 06:40:20;;;;;;;10.15;5.13;;;;;;;13.14;100.00;102035.47;6189166;28;20062;-78
2021/08/31 06:43:21;;;;;;;7.78;4.60;;;;;;;13.12;100.00;102031.16;6189980;28;20047;-78
2021/08/31 06:46:24;;;;;;;8.25;4.95;;;;;;;13.17;100.00;102038.00;6185256;28;20054;-76
2021/08/31 06:49:25;;;;;;;8.20;4.65;;;;;;;13.27;100.00;102027.91;6197566;28;20054;-78
2021/08/31 06:52:27;;;;;;;12.00;5.82;;;;;;;13.25;100.00;102027.09;6198445;28;20050;-76
2021/08/31 06:55:28;;;;;;;9.98;5.22;;;;;;;13.24;100.00;102032.47;6198082;28;20433;-76
2021/08/31 06:58:29;;;;;;;7.43;4.38;;;;;;;13.27;100.00;102033.19;6198223;28;20046;-76
2021/08/31 07:01:32;;;;;;;6.60;4.03;;;;;;;13.32;100.00;102022.44;6198459;28;20065;-76
2021/08/31 07:04:33;;;;;;;12.30;4.65;;;;;;;13.41;100.00;102033.44;6197954;28;20054;-76
2021/08/31 07:07:35;;;;;;;8.85;4.43;;;;;;;13.44;100.00;102035.06;6197752;28;20058;-76
2021/08/31 07:10:36;;;;;;;7.43;4.15;;;;;;;13.52;100.00;102027.66;6198035;28;20050;-76
2021/08/31 07:13:38;;;;;;;10.23;4.55;;;;;;;13.64;100.00;102027.13;6197969;28;20101;-78
2021/08/31 07:16:40;;;;;;;9.48;4.68;;;;;;;13.58;100.00;102023.88;6198193;28;20417;-76
2021/08/31 07:19:42;;;;;;;6.22;3.72;;;;;;;13.64;100.00;102029.75;6191023;28;20116;-76
2021/08/31 07:22:43;;;;;;;8.25;3.90;;;;;;;13.67;100.00;102032.28;6180749;28;20055;-76
2021/08/31 07:25:46;;;;;;;10.23;4.57;;;;;;;13.70;100.00;102037.41;6198097;28;20413;-76
2021/08/31 07:28:47;;;;;;;8.90;4.53;;;;;;;13.99;100.00;102037.84;6196965;28;20494;-76
2021/08/31 07:31:52;;;;;;;10.20;4.88;;;;;;;13.90;100.00;102044.41;6198313;28;20054;-76
2021/08/31 07:34:53;;;;;;;9.38;4.05;;;;;;;14.09;100.00;102039.13;6198306;28;20140;-76
2021/08/31 07:37:55;;;;;;;8.80;4.22;;;;;;;14.02;100.00;102045.63;6198545;28;20046;-76
2021/08/31 07:40:56;;;;;;;7.40;3.80;;;;;;;14.04;100.00;102043.78;6202904;28;20065;-76
2021/08/31 07:43:57;;;;;;;6.07;3.53;;;;;;;14.09;100.00;102048.84;6199376;28;20054;-75
2021/08/31 07:47:00;;;;;;;6.72;3.63;;;;;;;14.18;100.00;102043.97;6204230;28;20049;-76
2021/08/31 07:50:02;;;;;;;8.60;4.10;;;;;;;14.35;100.00;102047.56;6215373;28;20494;-77
2021/08/31 07:53:04;;;;;;;7.38;3.53;;;;;;;14.45;100.00;102059.44;6199936;28;20136;-77
2021/08/31 07:56:05;;;;;;;6.05;3.38;;;;;;;14.45;100.00;102060.31;6187105;28;20050;-78
2021/08/31 07:59:07;;;;;;;6.03;3.30;;;;;;;14.60;100.00;102061.38;6210746;28;20049;-78
2021/08/31 08:02:10;;;;;;;6.32;3.45;;;;;;;14.61;100.00;102059.56;6225591;28;20050;-77
2021/08/31 08:05:12;;;;;;;7.72;3.83;;;;;;;14.69;100.00;102060.91;6225123;28;20060;-77
2021/08/31 08:08:13;;;;;;;6.25;3.60;;;;;;;14.91;100.00;102054.56;6208569;28;20057;-77
2021/08/31 08:11:15;;;;;;;8.35;3.58;;;;;;;14.91;100.00;102044.81;6201614;28;20047;-77
2021/08/31 08:14:16;;;;;;;7.68;3.03;;;;;;;15.03;100.00;102050.41;6201119;28;20490;-77
2021/08/31 08:17:20;;;;;;;5.28;2.55;;;;;;;15.20;100.00;102055.69;6200904;28;20078;-77
2021/08/31 08:20:21;;;;;;;9.40;3.22;;;;;;;15.30;100.00;102056.06;6200764;28;20429;-78
2021/08/31 08:23:23;;;;;;;5.22;2.75;;;;;;;15.30;100.00;102053.44;6200081;28;20057;-77
2021/08/31 08:26:24;;;;;;;5.03;3.20;;;;;;;15.30;100.00;102054.28;6176449;28;20499;-77
2021/08/31 08:29:26;;;;;;;6.40;3.15;;;;;;;15.55;100.00;102050.34;6186070;28;20049;-77
2021/08/31 08:32:29;;;;;;;5.43;2.95;;;;;;;15.64;100.00;102048.09;6185981;28;20099;-76
2021/08/31 08:35:30;;;;;;;6.75;3.35;;;;;;;15.70;100.00;102054.84;6186843;28;20150;-76
2021/08/31 08:38:32;;;;;;;5.60;2.80;;;;;;;15.79;100.00;102051.69;6190547;28;20047;-77
2021/08/31 08:41:34;;;;;;;5.72;3.15;;;;;;;15.75;100.00;102052.81;6181413;28;20051;-76
2021/08/31 08:44:36;;;;;;;9.30;3.67;;;;;;;15.79;100.00;102053.50;6175692;28;20533;-77
2021/08/31 08:47:39;;;;;;;7.32;3.83;;;;;;;15.84;100.00;102060.25;6181047;28;20483;-76
2021/08/31 08:50:41;;;;;;;4.93;2.80;;;;;;;15.96;100.00;102058.75;6174460;28;20055;-76
2021/08/31 08:53:42;;;;;;;5.43;2.30;;;;;;;16.16;97.85;102070.88;6196055;28;20441;-78
2021/08/31 08:56:44;;;;;;;4.25;2.15;;;;;;;16.24;97.74;102053.59;6195792;28;20498;-77
2021/08/31 08:59:49;;;;;;;3.35;1.90;;;;;;;16.33;97.58;102059.34;6195367;28;20038;-78
2021/08/31 09:02:51;;;;;;;3.35;2.00;;;;;;;16.59;94.81;102065.81;6201275;28;20050;-76
2021/08/31 09:06:08;;;;;;;3.35;2.08;;;;;;;16.60;92.83;102059.56;6203137;28;20486;-77
2021/08/31 09:09:09;;;;;;;3.30;2.25;;;;;;;16.68;93.98;102063.50;6204070;28;20058;-78
2021/08/31 09:12:29;;;;;;;3.40;2.10;;;;;;;17.03;91.99;102059.72;6201495;28;20058;-76
2021/08/31 09:15:32;;;;;;;5.43;2.30;;;;;;;17.15;89.19;102064.31;6198552;28;20655;-77
2021/08/31 09:18:35;;;;;;;4.70;2.20;;;;;;;17.18;90.59;102058.84;6210872;28;20042;-77
2021/08/31 09:21:37;;;;;;;4.85;2.53;;;;;;;17.10;91.77;102056.63;6221886;28;20516;-78
2021/08/31 09:24:38;;;;;;;4.68;2.30;;;;;;;17.11;90.41;102053.00;6223537;28;20056;-78
2021/08/31 09:27:42;;;;;;;6.65;2.08;;;;;;;17.20;91.15;102054.28;6202724;28;20050;-78
2021/08/31 09:30:43;;;;;;;5.32;2.08;;;;;;;17.16;88.41;102048.28;6206045;28;20046;-77
2021/08/31 09:33:48;;;;;;;2.97;1.95;;;;;;;17.19;91.13;102047.25;6225565;28;20046;-77
2021/08/31 09:36:50;;;;;;;3.10;1.80;;;;;;;17.33;87.86;102047.25;6225159;28;20056;-78
2021/08/31 09:40:08;;;;;;;3.58;2.15;;;;;;;17.54;87.39;102041.59;6225219;28;20076;-78
2021/08/31 09:43:13;;;;;;;3.35;2.00;;;;;;;17.56;86.38;102045.00;6223816;28;20053;-76
2021/08/31 09:46:14;;;;;;;3.67;1.77;;;;;;;17.73;84.48;102050.13;6210678;28;20509;-76
2021/08/31 09:49:22;;;;;;;3.95;2.63;;;;;;;17.83;84.32;102051.28;6223152;28;20046;-76
2021/08/31 09:52:24;;;;;;;3.58;1.70;;;;;;;17.72;83.20;102049.28;6213001;28;20513;-79
2021/08/31 09:55:25;;;;;;;5.13;2.10;;;;;;;17.86;83.14;102060.88;6206576;28;20045;-78
2021/08/31 09:58:27;;;;;;;5.85;2.20;;;;;;;17.89;82.97;102056.19;6223807;28;20390;-77
2021/08/31 10:01:28;;;;;;;3.03;1.75;;;;;;;17.92;82.11;102055.16;6223912;28;20046;-78
2021/08/31 10:04:31;;;;;;;2.78;1.90;;;;;;;17.95;83.75;102045.19;6223909;28;20049;-77
2021/08/31 10:07:32;;;;;;;2.83;1.88;;;;;;;17.98;84.48;102049.44;6222769;28;20409;-78
2021/08/31 10:10:35;;;;;;;2.47;1.95;;;;;;;18.19;82.56;102055.22;6226056;28;20076;-78
2021/08/31 10:13:38;;;;;;;3.10;1.92;;;;;;;18.14;81.42;102047.53;6225000;28;20054;-77
2021/08/31 10:16:41;;;;;;;3.08;1.83;;;;;;;18.20;82.61;102051.59;6224150;28;20387;-77
2021/08/31 10:19:45;;;;;;;2.72;1.60;;;;;;;18.24;82.04;102056.63;6224314;28;20046;-77
2021/08/31 10:22:47;;;;;;;2.17;1.58;;;;;;;18.26;80.73;102048.56;6223531;28;20049;-78
2021/08/31 10:25:49;;;;;;;4.20;1.80;;;;;;;18.44;80.36;102058.00;6224656;28;20057;-77
2021/08/31 10:28:51;;;;;;;3.78;2.13;;;;;;;18.64;76.94;102050.50;6222798;28;20042;-77
2021/08/31 10:31:53;;;;;;;3.65;1.80;;;;;;;18.59;79.19;102050.81;6222689;28;20053;-77
2021/08/31 10:34:56;;;;;;;2.80;1.67;;;;;;;18.69;76.98;102051.91;6222005;28;20045;-77
2021/08/31 10:38:00;;;;;;;3.22;1.65;;;;;;;18.61;76.41;102053.34;6222255;28;20046;-77
2021/08/31 10:41:02;;;;;;;3.75;2.00;;;;;;;18.71;76.82;102063.34;6221923;28;20053;-77
2021/08/31 10:44:05;;;;;;;3.03;1.88;;;;;;;18.96;76.84;102059.03;6222100;28;20049;-76
2021/08/31 10:47:19;;;;;;;3.42;1.95;;;;;;;18.88;76.32;102056.00;6221840;28;20053;-77
2021/08/31 10:50:24;;;;;;;3.30;1.80;;;;;;;19.10;76.96;102056.25;6210929;28;20050;-77
2021/08/31 10:53:39;;;;;;;3.25;2.05;;;;;;;19.09;77.01;102053.72;6197667;28;20053;-77
2021/08/31 10:56:43;;;;;;;3.55;1.83;;;;;;;19.13;78.87;102052.53;6197585;28;20053;-76
2021/08/31 10:59:44;;;;;;;3.90;2.47;;;;;;;19.24;77.81;102047.31;6197689;28;20053;-77
2021/08/31 11:02:57;;;;;;;3.83;1.98;;;;;;;19.23;76.32;102050.94;6194882;28;20053;-77
2021/08/31 11:06:17;;;;;;;2.60;1.50;;;;;;;19.15;75.27;102059.47;6208232;28;20046;-77
2021/08/31 11:09:20;;;;;;;6.20;2.08;;;;;;;19.57;72.71;102045.91;6252073;22;20141;-78
2021/08/31 11:12:28;;;;;;;4.97;2.03;;;;;;;19.73;74.49;102050.09;6222642;28;20096;-79
2021/08/31 11:15:29;;;;;;;2.33;1.55;;;;;;;19.99;73.38;102053.56;6228671;28;20489;-78
2021/08/31 11:18:35;;;;;;;2.30;1.50;;;;;;;20.19;69.38;102048.59;6230797;28;20046;-79
2021/08/31 11:21:48;;;;;;;4.95;1.63;;;;;;;20.36;68.02;102055.38;6241264;28;20046;-77
2021/08/31 11:24:54;;;;;;;1.70;1.35;;;;;;;20.31;69.42;102045.03;6240030;28;20057;-78
2021/08/31 11:27:58;;;;;;;3.47;1.80;;;;;;;20.37;68.47;102054.41;6255644;28;20686;-78
2021/08/31 11:31:03;;;;;;;2.63;1.50;;;;;;;20.31;68.60;102054.84;6257471;28;20049;-78
2021/08/31 11:34:10;;;;;;;2.00;1.48;;;;;;;20.52;67.82;102061.28;6244024;28;20052;-79
2021/08/31 11:37:12;;;;;;;4.15;1.80;;;;;;;20.53;66.67;102060.34;6214122;28;20053;-79
2021/08/31 11:40:14;;;;;;;2.60;1.60;;;;;;;20.78;66.04;102062.88;6207245;28;20080;-79
2021/08/31 11:43:15;;;;;;;3.90;1.90;;;;;;;21.03;63.22;102059.19;6209677;28;20053;-77
2021/08/31 11:46:21;;;;;;;2.67;1.50;;;;;;;21.23;65.57;102052.28;6245784;28;20061;-79
2021/08/31 11:49:25;;;;;;;2.17;1.42;;;;;;;21.26;64.46;102054.75;6230518;28;20046;-78
2021/08/31 11:52:28;;;;;;;2.40;1.65;;;;;;;21.05;63.86;102055.53;6232141;28;20057;-79
2021/08/31 11:55:29;;;;;;;2.90;1.58;;;;;;;21.39;64.13;102059.16;6231151;28;20038;-78
2021/08/31 11:58:32;;;;;;;4.07;1.77;;;;;;;21.65;60.95;102057.09;6237959;28;20049;-79
2021/08/31 12:01:34;;;;;;;5.75;1.77;;;;;;;21.61;62.54;102044.94;6231644;28;20050;-78
2021/08/31 12:04:36;;;;;;;2.90;1.92;;;;;;;21.57;63.81;102054.16;6230995;28;20046;-78
2021/08/31 12:07:42;;;;;;;2.67;1.50;;;;;;;21.85;65.70;102055.53;6239000;28;20053;-77
2021/08/31 12:10:44;;;;;;;3.05;1.80;;;;;;;21.84;64.34;102054.66;6241702;28;20046;-79
2021/08/31 12:13:49;;;;;;;2.65;1.50;;;;;;;21.90;60.76;102066.72;6229958;28;20389;-79
2021/08/31 12:16:50;;;;;;;2.47;1.48;;;;;;;21.44;64.35;102057.84;6231420;28;20073;-78
2021/08/31 12:20:04;;;;;;;3.13;1.65;;;;;;;21.96;60.79;102060.84;6229590;28;20133;-80
2021/08/31 12:23:07;;;;;;;3.13;1.48;;;;;;;21.99;61.66;102057.94;6229376;28;20057;-79
2021/08/31 12:26:08;;;;;;;3.35;1.95;;;;;;;22.25;57.43;102061.19;6238273;28;20046;-79
2021/08/31 12:29:11;;;;;;;2.90;1.70;;;;;;;22.13;57.39;102055.03;6234734;28;20050;-77
2021/08/31 12:32:13;;;;;;;3.90;1.42;;;;;;;22.39;55.98;102058.25;6226103;28;20046;-79
2021/08/31 12:35:26;;;;;;;3.00;1.65;;;;;;;22.38;57.63;102050.31;6236144;28;20053;-78
2021/08/31 12:38:32;;;;;;;3.63;1.60;;;;;;;22.40;56.90;102051.91;6246830;28;20154;-79
2021/08/31 12:41:44;;;;;;;3.20;1.42;;;;;;;21.55;60.91;102051.63;6251897;28;20045;-79
2021/08/31 12:44:49;;;;;;;4.10;1.90;;;;;;;21.45;60.92;102048.84;6232904;28;20057;-80
2021/08/31 12:47:53;;;;;;;1.85;1.48;;;;;;;22.06;61.58;102047.56;6226777;28;20399;-79
2021/08/31 12:51:04;;;;;;;3.10;1.58;;;;;;;22.32;55.38;102045.47;6226918;28;20054;-79
2021/08/31 12:54:07;;;;;;;3.20;1.55;;;;;;;21.77;57.87;102054.31;6222895;28;20058;-79
2021/08/31 12:57:10;;;;;;;2.00;1.60;;;;;;;21.46;59.38;102060.38;6237536;28;20053;-79
2021/08/31 13:00:22;;;;;;;2.15;1.30;;;;;;;21.12;58.96;102057.63;6212837;28;20045;-79
2021/08/31 13:03:29;;;;;;;2.85;1.70;;;;;;;21.18;61.20;102054.47;6220486;28;20052;-78
2021/08/31 13:06:31;;;;;;;2.28;1.23;;;;;;;21.61;58.74;102043.09;6241827;28;20184;-81
2021/08/31 13:09:35;;;;;;;2.60;1.50;;;;;;;22.09;60.38;102050.00;6229803;28;20480;-79
2021/08/31 13:12:36;;;;;;;2.45;1.30;;;;;;;22.43;58.13;102043.59;6238908;28;20045;-77
2021/08/31 13:15:38;;;;;;;3.15;1.30;;;;;;;22.41;56.38;102037.53;6239779;28;20046;-77
2021/08/31 13:18:39;;;;;;;2.30;1.85;;;;;;;22.27;58.89;102044.03;6235366;28;20049;-76
2021/08/31 13:21:41;;;;;;;3.22;1.50;;;;;;;21.91;62.42;102038.97;6234142;28;20046;-76
2021/08/31 13:24:44;;;;;;;3.67;1.85;;;;;;;22.14;56.98;102046.00;6246297;28;20045;-77
2021/08/31 13:27:45;;;;;;;1.98;1.40;;;;;;;22.42;58.83;102041.91;6245401;28;20045;-77
2021/08/31 13:30:47;;;;;;;2.85;1.60;;;;;;;22.91;55.67;102045.00;6240499;28;20056;-77
2021/08/31 13:33:48;;;;;;;1.95;1.40;;;;;;;22.82;56.24;102038.56;6248039;28;20049;-77
2021/08/31 13:36:49;;;;;;;2.58;1.35;;;;;;;22.97;56.02;102048.00;6247259;28;20430;-77
2021/08/31 13:39:52;;;;;;;2.47;1.60;;;;;;;22.94;55.59;102044.75;6238989;28;20046;-77
2021/08/31 13:42:54;;;;;;;1.83;1.27;;;;;;;23.18;55.00;102031.06;6247497;28;20049;-77
2021/08/31 13:45:56;;;;;;;2.22;1.42;;;;;;;23.09;54.11;102034.53;6247961;28;20473;-77
2021/08/31 13:48:57;;;;;;;2.65;1.33;;;;;;;23.09;54.44;102035.41;6247987;28;20057;-77
2021/08/31 13:51:58;;;;;;;4.97;2.25;;;;;;;23.39;54.87;102025.66;6237829;28;20057;-77
2021/08/31 13:55:01;;;;;;;2.15;1.10;;;;;;;23.37;54.94;102028.47;6232497;28;20072;-77
2021/08/31 13:58:03;;;;;;;2.25;1.35;;;;;;;23.69;52.96;102025.69;6239749;28;20521;-78
2021/08/31 14:01:04;;;;;;;2.53;1.55;;;;;;;23.40;52.51;102022.00;6249300;28;20046;-77
2021/08/31 14:04:06;;;;;;;1.73;1.45;;;;;;;23.24;52.16;102025.16;6235587;28;20409;-77